Time;durP1;ratioP1;P1;durP2;ratioP2;P2;SDS_P1;SDS_P2;PMS_P1;PMS_P2;Temp;Humidity;BMP_temperature;BMP_pressure;BME280_temperature;BME280_humidity;BME280_pressure;Samples;Min_cycle;Max_cycle;Signal;HPM_P1;HPM_P2
2022/04/16 00:00:17;;;;;;;24.27;15.25;;;;;;;14.43;49.79;98764.19;5056718;28;20055;-72
2022/04/16 00:02:46;;;;;;;27.00;15.85;;;;;;;14.57;49.59;98788.06;5073517;28;20165;-71
2022/04/16 00:05:14;;;;;;;24.83;16.07;;;;;;;14.65;49.42;98789.69;5057048;28;20044;-70
2022/04/16 00:07:40;;;;;;;28.02;16.90;;;;;;;14.68;49.39;98794.63;5089868;28;20282;-71
2022/04/16 00:10:10;;;;;;;28.80;16.08;;;;;;;14.66;49.46;98780.66;5056132;28;20090;-71
2022/04/16 00:12:36;;;;;;;27.23;16.17;;;;;;;14.51;49.73;98783.53;5091294;28;20120;-72
2022/04/16 00:15:06;;;;;;;31.23;16.40;;;;;;;14.57;49.55;98788.06;5056229;28;20513;-72
2022/04/16 00:17:32;;;;;;;28.40;16.77;;;;;;;14.53;49.52;98783.31;5089687;28;20046;-70
2022/04/16 00:20:00;;;;;;;31.17;17.58;;;;;;;14.54;49.80;98788.47;5056706;28;20126;-71
2022/04/16 00:22:25;;;;;;;26.95;16.40;;;;;;;14.57;49.63;98790.72;5057241;28;20044;-70
2022/04/16 00:24:51;;;;;;;36.97;16.65;;;;;;;14.58;49.40;98788.84;5023326;28;20562;-70
2022/04/16 00:27:18;;;;;;;28.17;17.35;;;;;;;14.56;49.37;98790.94;5072857;28;20080;-71
2022/04/16 00:29:44;;;;;;;26.30;16.98;;;;;;;14.53;49.70;98788.66;5072715;28;20107;-70
2022/04/16 00:32:09;;;;;;;23.70;17.05;;;;;;;14.53;49.96;98791.34;5056269;28;20039;-71
2022/04/16 00:34:35;;;;;;;24.52;16.67;;;;;;;14.54;49.55;98787.63;5055635;28;20043;-70
2022/04/16 00:37:01;;;;;;;27.08;16.98;;;;;;;14.59;49.33;98790.53;5073068;28;20047;-72
2022/04/16 00:39:27;;;;;;;29.67;17.88;;;;;;;14.32;49.65;98762.94;5073288;28;20044;-70
2022/04/16 00:41:53;;;;;;;32.88;19.65;;;;;;;14.55;49.46;98783.91;5090826;28;20126;-70
2022/04/16 00:44:20;;;;;;;33.33;21.25;;;;;;;14.68;49.72;98784.75;5089294;28;20469;-71
2022/04/16 00:46:50;;;;;;;34.78;23.25;;;;;;;14.56;49.71;98781.03;5089330;28;20044;-70
2022/04/16 00:49:16;;;;;;;33.58;23.98;;;;;;;14.58;49.68;98772.81;5039195;28;20067;-70
2022/04/16 00:51:45;;;;;;;37.90;25.73;;;;;;;14.74;49.49;98781.28;5055803;28;20151;-70
2022/04/16 00:54:11;;;;;;;41.28;26.13;;;;;;;14.56;49.58;98769.56;5039272;28;20093;-72
2022/04/16 00:56:38;;;;;;;44.00;28.90;;;;;;;14.53;49.55;98756.59;5039154;28;20044;-72
2022/04/16 00:59:04;;;;;;;41.85;28.95;;;;;;;14.48;49.57;98767.91;5039210;28;20135;-70
2022/04/16 01:01:31;;;;;;;51.50;31.33;;;;;;;14.56;49.66;98775.69;5072578;28;20071;-71
2022/04/16 01:03:57;;;;;;;54.78;33.45;;;;;;;14.44;49.62;98772.00;5055487;28;20378;-72
2022/04/16 01:06:22;;;;;;;53.45;33.95;;;;;;;14.52;49.74;98776.31;5090414;28;20047;-73
2022/04/16 01:08:48;;;;;;;49.38;32.80;;;;;;;14.46;49.97;98777.13;5090430;28;20409;-73
2022/04/16 01:11:15;;;;;;;45.33;30.38;;;;;;;14.57;49.44;98774.69;5072065;28;20097;-73
2022/04/16 01:13:45;;;;;;;47.67;28.52;;;;;;;14.43;49.49;98758.84;5089435;28;20040;-73
2022/04/16 01:16:11;;;;;;;37.70;26.40;;;;;;;14.50;49.54;98781.06;5072872;28;20098;-73
2022/04/16 01:18:47;;;;;;;39.25;25.48;;;;;;;14.78;49.42;98781.69;5038810;28;20454;-74
2022/04/16 01:21:14;;;;;;;38.28;24.77;;;;;;;14.66;49.31;98777.97;5055286;28;20090;-74
2022/04/16 01:23:39;;;;;;;39.50;24.17;;;;;;;14.62;49.41;98780.22;5088693;28;20461;-73
2022/04/16 01:26:06;;;;;;;35.45;23.73;;;;;;;14.53;49.43;98765.41;5055281;28;20044;-73
2022/04/16 01:28:32;;;;;;;35.25;23.25;;;;;;;14.60;49.25;98771.59;5072329;28;20056;-74
2022/04/16 01:30:58;;;;;;;38.75;22.25;;;;;;;14.57;49.31;98776.53;5071972;28;20063;-73
2022/04/16 01:33:24;;;;;;;32.30;22.83;;;;;;;14.59;49.37;98775.28;5072279;28;20606;-73
2022/04/16 01:35:56;;;;;;;32.25;21.90;;;;;;;14.60;49.48;98774.28;5088577;28;20043;-71
2022/04/16 01:38:25;;;;;;;36.50;23.00;;;;;;;14.74;49.35;98775.09;5088654;28;20070;-73
2022/04/16 01:40:57;;;;;;;30.38;23.25;;;;;;;14.89;49.02;98775.72;5072107;28;20509;-72
2022/04/16 01:43:24;;;;;;;31.67;22.92;;;;;;;14.68;49.07;98775.94;5071751;28;20101;-72
2022/04/16 01:45:50;;;;;;;32.53;22.15;;;;;;;14.44;49.04;98745.28;5089799;28;20064;-74
2022/04/16 01:48:17;;;;;;;30.20;22.35;;;;;;;14.65;49.10;98781.69;5075785;28;20082;-72
2022/04/16 01:50:43;;;;;;;32.92;22.77;;;;;;;14.47;49.48;98781.44;5075844;28;20502;-72
2022/04/16 01:53:08;;;;;;;33.35;22.80;;;;;;;14.47;49.22;98776.94;5075644;28;20522;-73
2022/04/16 01:55:34;;;;;;;35.15;22.67;;;;;;;14.41;49.23;98776.91;5092523;28;20520;-71
2022/04/16 01:58:00;;;;;;;33.20;23.13;;;;;;;14.38;49.23;98766.63;5075213;28;20517;-72
2022/04/16 02:00:26;;;;;;;32.67;22.45;;;;;;;14.43;49.47;98774.88;5092437;28;20051;-72
2022/04/16 02:02:52;;;;;;;33.55;22.35;;;;;;;14.22;49.18;98757.13;5058964;28;20040;-71
2022/04/16 02:05:19;;;;;;;32.13;22.23;;;;;;;14.22;49.22;98773.13;5075452;28;20100;-69
2022/04/16 02:07:44;;;;;;;32.72;22.33;;;;;;;14.13;49.74;98776.22;5075362;28;20063;-71
2022/04/16 02:10:16;;;;;;;32.25;22.20;;;;;;;14.08;49.73;98773.31;5058794;28;20040;-71
2022/04/16 02:12:42;;;;;;;31.88;22.63;;;;;;;13.89;49.65;98745.53;5092411;28;20078;-71
2022/04/16 02:15:09;;;;;;;30.27;21.40;;;;;;;14.09;49.74;98772.28;5093369;28;20048;-71
2022/04/16 02:17:36;;;;;;;27.30;20.98;;;;;;;13.87;49.95;98746.78;5092069;28;20577;-71
2022/04/16 02:20:06;;;;;;;29.48;21.48;;;;;;;14.00;50.03;98779.66;5092473;28;20131;-71
2022/04/16 02:22:43;;;;;;;27.70;21.08;;;;;;;14.00;50.10;98779.66;5092952;28;20044;-71
2022/04/16 02:25:10;;;;;;;29.73;20.80;;;;;;;13.76;50.36;98777.50;5075207;28;20098;-71
2022/04/16 02:27:36;;;;;;;24.85;19.05;;;;;;;13.64;50.54;98776.44;5092109;28;20581;-70
2022/04/16 02:30:07;;;;;;;27.10;19.88;;;;;;;13.61;50.30;98742.13;5093536;28;20189;-72
2022/04/16 02:32:38;;;;;;;26.33;20.27;;;;;;;13.81;50.09;98769.72;5108708;28;20055;-71
2022/04/16 02:35:04;;;;;;;;;;;;;;;13.73;49.89;98780.56;5091386;28;20502;-71
2022/04/16 02:37:30;;;;;;;20.33;16.38;;;;;;;13.25;50.48;98782.38;5072717;28;19920;-71
2022/04/16 02:39:56;;;;;;;17.92;14.35;;;;;;;13.17;50.41;98779.03;5089258;28;20452;-71
2022/04/16 02:42:21;;;;;;;17.23;12.57;;;;;;;13.06;49.92;98790.22;5072481;28;20039;-73
2022/04/16 02:47:34;;;;;;;15.57;12.43;;;;;;;13.01;50.17;98792.66;5075118;28;20558;-71
2022/04/16 02:50:00;;;;;;;15.80;12.30;;;;;;;12.80;50.15;98790.00;5056801;28;20086;-71
2022/04/16 02:52:26;;;;;;;16.40;13.10;;;;;;;12.79;50.54;98788.38;5057986;28;20067;-72
2022/04/16 02:54:54;;;;;;;14.20;11.98;;;;;;;12.74;49.95;98788.94;5074284;28;20564;-73
2022/04/16 02:57:20;;;;;;;15.93;12.45;;;;;;;12.54;50.05;98785.28;5093064;28;20186;-72
2022/04/16 02:59:47;;;;;;;14.93;12.13;;;;;;;12.43;50.12;98796.44;5060679;28;20559;-72
2022/04/16 03:02:13;;;;;;;16.92;13.50;;;;;;;12.51;50.00;98801.63;5060915;28;20131;-72
2022/04/16 03:04:39;;;;;;;17.88;14.27;;;;;;;12.44;50.36;98800.72;5094833;28;20067;-72
2022/04/16 03:07:05;;;;;;;16.00;13.88;;;;;;;12.40;50.24;98802.13;5077718;28;20074;-71
2022/04/16 03:09:31;;;;;;;17.30;13.95;;;;;;;12.16;50.42;98804.34;5094285;28;20432;-72
2022/04/16 03:11:58;;;;;;;16.33;12.90;;;;;;;12.07;50.59;98802.81;5094238;28;20054;-72
2022/04/16 03:19:55;;;;;;;14.52;11.00;;;;;;;11.85;50.34;98820.56;5079694;28;20036;-71
2022/04/16 03:22:21;;;;;;;12.75;11.00;;;;;;;11.85;49.97;98808.06;5111145;28;20040;-73
2022/04/16 03:24:47;;;;;;;13.05;10.60;;;;;;;11.60;50.46;98821.81;5094068;28;20050;-72
2022/04/16 03:27:13;;;;;;;11.98;10.18;;;;;;;11.25;50.62;98786.19;5094095;28;20040;-73
2022/04/16 03:29:39;;;;;;;14.50;11.82;;;;;;;11.43;50.89;98821.19;5077447;28;20052;-72
2022/04/16 03:32:06;;;;;;;13.75;11.25;;;;;;;11.49;50.99;98831.09;5077040;28;20040;-72
2022/04/16 03:34:32;;;;;;;14.60;11.27;;;;;;;11.37;51.03;98829.06;5077172;28;20039;-70
2022/04/16 03:36:58;;;;;;;10.85;9.60;;;;;;;11.33;50.66;98830.44;5077112;28;20051;-70
2022/04/16 03:39:23;;;;;;;10.15;8.40;;;;;;;11.16;50.64;98839.59;5077238;28;20047;-71
2022/04/16 03:41:49;;;;;;;9.20;8.00;;;;;;;11.10;50.44;98835.81;5110708;28;20043;-72
2022/04/16 03:44:15;;;;;;;11.40;8.38;;;;;;;11.13;50.61;98835.44;5076753;28;20035;-73
2022/04/16 03:46:41;;;;;;;10.95;8.00;;;;;;;11.17;50.54;98835.91;5111062;28;20051;-71
2022/04/16 03:49:07;;;;;;;9.48;6.97;;;;;;;11.06;50.06;98839.84;5110836;28;20044;-71
2022/04/16 03:51:33;;;;;;;9.45;7.63;;;;;;;10.95;50.11;98832.31;5093680;28;20134;-72
2022/04/16 03:59:59;;;;;;;9.07;7.25;;;;;;;10.91;50.22;98838.16;5093458;28;20043;-71
2022/04/16 04:02:12;;;;;;;8.88;7.40;;;;;;;10.67;50.23;98838.38;5079000;28;20419;-74
2022/04/16 04:04:38;;;;;;;11.63;7.15;;;;;;;10.65;50.35;98843.84;5077124;28;20039;-72
2022/04/16 04:07:04;;;;;;;8.48;7.25;;;;;;;10.60;50.44;98826.78;5110512;28;20111;-72
2022/04/16 04:09:31;;;;;;;8.27;6.93;;;;;;;10.69;49.97;98833.69;5109577;28;20048;-72
2022/04/16 04:11:57;;;;;;;7.88;6.53;;;;;;;10.45;50.03;98855.09;5076135;28;20044;-72
2022/04/16 04:14:23;;;;;;;8.73;6.70;;;;;;;10.47;49.87;98847.81;5093213;28;20362;-72
2022/04/16 04:16:48;;;;;;;9.63;6.50;;;;;;;10.49;49.97;98856.41;5110334;28;20066;-72
2022/04/16 04:19:14;;;;;;;6.25;5.60;;;;;;;10.50;49.64;98853.56;5075854;28;20043;-73
2022/04/16 04:21:39;;;;;;;4.68;4.28;;;;;;;10.38;49.17;98856.81;5076568;28;20036;-72
2022/04/16 04:24:05;;;;;;;6.10;5.50;;;;;;;10.37;49.68;98856.00;5075925;28;20141;-72
2022/04/16 04:26:31;;;;;;;5.85;4.82;;;;;;;10.31;49.45;98863.81;5076150;28;20595;-73
2022/04/16 04:28:57;;;;;;;4.45;4.05;;;;;;;10.32;49.40;98871.59;5109955;28;20138;-74
2022/04/16 04:31:22;;;;;;;4.20;3.80;;;;;;;10.07;49.31;98862.94;5076036;28;20039;-74
2022/04/16 04:33:48;;;;;;;4.18;3.60;;;;;;;10.08;49.48;98867.28;5059169;28;20035;-73
2022/04/16 04:36:14;;;;;;;4.15;3.58;;;;;;;10.00;49.65;98869.94;5093117;28;20480;-73
2022/04/16 04:38:49;;;;;;;3.63;3.20;;;;;;;9.87;49.66;98882.91;5110066;28;20081;-72
2022/04/16 04:41:14;;;;;;;3.50;3.20;;;;;;;9.68;49.79;98871.88;5076149;28;20090;-75
2022/04/16 04:43:40;;;;;;;4.10;3.70;;;;;;;9.64;50.18;98874.03;5076174;28;20047;-72
2022/04/16 04:46:06;;;;;;;3.70;3.03;;;;;;;9.49;50.15;98881.03;5075660;28;20091;-72
2022/04/16 04:48:31;;;;;;;3.53;3.23;;;;;;;9.55;50.41;98892.78;5058753;28;20075;-71
2022/04/16 04:50:57;;;;;;;4.20;3.40;;;;;;;9.60;50.25;98890.47;5075601;28;20043;-78
2022/04/16 04:53:26;;;;;;;4.50;3.30;;;;;;;9.54;50.12;98889.31;5076584;28;20179;-78
2022/04/16 04:55:52;;;;;;;3.33;3.03;;;;;;;9.59;50.13;98894.94;5076711;28;20076;-80
2022/04/16 04:58:19;;;;;;;3.63;3.33;;;;;;;9.49;50.13;98896.94;5077998;28;20042;-79
2022/04/16 05:00:45;;;;;;;3.53;3.20;;;;;;;9.52;49.93;98883.34;5094393;28;20085;-80
2022/04/16 05:03:21;;;;;;;;;;;;;;;;;;;;;
2022/04/16 05:05:48;;;;;;;3.33;2.67;;;;;;;9.44;50.20;98907.22;5094869;28;20032;-79
2022/04/16 05:08:14;;;;;;;4.17;2.60;;;;;;;9.41;50.06;98923.47;5092756;28;20109;-82
2022/04/16 05:10:46;;;;;;;2.83;2.63;;;;;;;9.70;49.83;98922.91;5074090;28;20055;-78
2022/04/16 05:13:12;;;;;;;3.33;2.60;;;;;;;9.44;50.04;98925.78;5072267;28;20085;-76
2022/04/16 05:15:38;;;;;;;3.23;2.93;;;;;;;9.49;49.78;98923.44;5067387;28;20505;-76
2022/04/16 05:18:03;;;;;;;5.30;3.10;;;;;;;9.58;49.90;98922.44;5086619;28;20413;-76
2022/04/16 05:20:29;;;;;;;3.43;3.13;;;;;;;9.53;49.66;98916.81;5076590;28;20504;-75
2022/04/16 05:22:55;;;;;;;3.70;3.40;;;;;;;9.55;49.66;98930.72;5060873;28;20055;-75
2022/04/16 05:25:21;;;;;;;3.20;2.80;;;;;;;9.49;49.70;98925.25;5062616;28;20088;-72
2022/04/16 05:27:46;;;;;;;2.83;2.53;;;;;;;9.47;49.56;98914.84;5096675;28;20055;-77
2022/04/16 05:30:13;;;;;;;3.10;2.80;;;;;;;9.52;49.44;98932.88;5076242;28;20054;-76
2022/04/16 05:32:40;;;;;;;2.58;2.38;;;;;;;9.69;49.08;98922.09;5086698;28;20044;-73
2022/04/16 05:35:08;;;;;;;2.27;2.10;;;;;;;9.71;48.96;98929.88;5095896;28;20043;-79
2022/04/16 05:37:34;;;;;;;2.75;2.22;;;;;;;9.59;48.62;98934.72;5062525;28;20043;-78
2022/04/16 05:40:01;;;;;;;2.53;2.33;;;;;;;9.54;48.84;98917.66;5095315;28;20062;-76
2022/04/16 05:42:29;;;;;;;4.20;2.43;;;;;;;9.49;49.00;98936.69;5096608;28;20061;-73
2022/04/16 05:45:02;;;;;;;3.67;2.70;;;;;;;9.79;48.92;98935.16;5097553;28;20056;-70
2022/04/16 05:47:30;;;;;;;2.90;2.50;;;;;;;9.50;48.69;98933.03;5098014;28;20051;-76
2022/04/16 05:49:55;;;;;;;2.83;2.63;;;;;;;9.44;48.84;98927.63;5066190;28;20043;-77
2022/04/16 05:52:22;;;;;;;4.63;3.10;;;;;;;9.45;48.86;98927.44;5073178;28;20040;-75
2022/04/16 05:54:48;;;;;;;3.33;3.03;;;;;;;9.44;49.02;98928.41;5087540;28;20134;-75
2022/04/16 05:57:14;;;;;;;3.13;2.83;;;;;;;9.40;48.52;98919.16;5061735;28;20035;-78
2022/04/16 05:59:43;;;;;;;3.40;2.53;;;;;;;9.39;48.93;98914.88;5078852;28;20050;-78
2022/04/16 06:02:10;;;;;;;3.13;2.63;;;;;;;9.34;48.78;98924.31;5079216;28;20112;-79
2022/04/16 06:04:36;;;;;;;4.23;2.67;;;;;;;9.41;48.66;98930.59;5092639;27;20130;-76
2022/04/16 06:07:02;;;;;;;2.10;2.00;;;;;;;9.43;48.57;98932.06;5066682;28;20557;-79
2022/04/16 06:09:28;;;;;;;3.10;2.80;;;;;;;9.45;48.45;98924.78;5082143;28;20044;-78
2022/04/16 06:12:04;;;;;;;2.40;2.20;;;;;;;9.82;47.90;98930.34;5065305;28;20155;-75
2022/04/16 06:14:33;;;;;;;2.17;1.83;;;;;;;9.82;48.18;98937.47;5097304;28;20554;-73
2022/04/16 06:16:58;;;;;;;2.63;1.83;;;;;;;9.62;48.31;98936.19;5064162;28;20039;-75
2022/04/16 06:19:24;;;;;;;1.70;1.60;;;;;;;9.68;47.92;98939.00;5065553;28;20104;-75
2022/04/16 06:21:50;;;;;;;1.53;1.43;;;;;;;9.64;47.59;98944.81;5081486;28;20052;-70
2022/04/16 06:24:16;;;;;;;1.52;1.42;;;;;;;9.75;48.25;98953.22;5081576;28;20484;-73
2022/04/16 06:26:42;;;;;;;1.70;1.60;;;;;;;9.59;47.77;98958.56;5081084;28;20039;-77
2022/04/16 06:29:09;;;;;;;1.67;1.57;;;;;;;9.61;48.33;98951.25;5078679;28;20051;-74
2022/04/16 06:31:35;;;;;;;1.87;1.53;;;;;;;9.57;48.02;98951.75;5111829;28;20048;-73
2022/04/16 06:34:01;;;;;;;2.10;1.43;;;;;;;9.59;48.07;98949.78;5095444;28;20111;-78
2022/04/16 06:36:27;;;;;;;1.57;1.40;;;;;;;9.52;48.23;98954.91;5078781;28;20047;-75
2022/04/16 06:38:54;;;;;;;1.50;1.30;;;;;;;9.50;48.05;98966.69;5095547;28;20045;-76
2022/04/16 06:41:20;;;;;;;2.67;1.60;;;;;;;9.57;48.09;98965.84;5078616;28;20043;-77
2022/04/16 06:43:46;;;;;;;4.40;1.60;;;;;;;9.55;48.30;98959.88;5068118;28;20063;-74
2022/04/16 06:46:13;;;;;;;1.60;1.50;;;;;;;9.25;48.34;98944.69;5072899;28;20040;-77
2022/04/16 06:48:41;;;;;;;2.13;1.63;;;;;;;9.28;48.35;98939.06;5082473;28;20088;-73
2022/04/16 06:51:09;;;;;;;1.70;1.60;;;;;;;9.39;48.62;98959.91;5092715;28;20722;-76
2022/04/16 06:53:35;;;;;;;2.73;1.80;;;;;;;9.39;48.38;98948.47;5092561;28;20050;-75
2022/04/16 06:56:01;;;;;;;2.10;1.90;;;;;;;9.49;48.50;98952.59;5041438;28;20044;-75
2022/04/16 06:58:28;;;;;;;2.30;1.80;;;;;;;9.58;48.25;98951.59;5108726;27;20111;-75
2022/04/16 07:00:55;;;;;;;3.33;1.63;;;;;;;9.57;48.29;98957.91;5074360;28;20485;-76
2022/04/16 07:03:21;;;;;;;1.60;1.50;;;;;;;9.43;48.50;98966.53;5055761;28;20134;-74
2022/04/16 07:05:47;;;;;;;4.60;1.70;;;;;;;9.34;48.27;98972.84;5072911;28;20592;-73
2022/04/16 07:08:13;;;;;;;1.30;1.20;;;;;;;9.43;48.10;98978.94;5108989;28;20550;-76
2022/04/16 07:10:39;;;;;;;3.37;1.80;;;;;;;9.46;48.22;98986.56;5076776;28;20047;-74
2022/04/16 07:13:05;;;;;;;1.80;1.50;;;;;;;9.45;48.22;98980.44;5094848;28;20500;-76
2022/04/16 07:15:33;;;;;;;1.63;1.53;;;;;;;9.25;48.14;98960.59;5095134;28;20079;-74
2022/04/16 07:17:59;;;;;;;2.23;1.80;;;;;;;9.49;48.30;98986.22;5110999;28;20044;-76
2022/04/16 07:20:26;;;;;;;2.67;1.30;;;;;;;9.39;48.08;98982.94;5112611;28;20056;-75
2022/04/16 07:22:54;;;;;;;3.33;1.80;;;;;;;9.42;47.94;98999.34;5077881;28;20035;-72
2022/04/16 07:25:21;;;;;;;1.47;1.37;;;;;;;9.58;48.20;98998.50;5094923;28;20618;-76
2022/04/16 07:27:47;;;;;;;1.73;1.40;;;;;;;9.57;47.79;99002.13;5094505;28;20458;-77
2022/04/16 07:30:13;;;;;;;2.38;1.40;;;;;;;9.77;47.57;99020.19;5110994;28;20075;-77
2022/04/16 07:32:39;;;;;;;1.60;1.50;;;;;;;9.93;47.58;99021.97;5077990;28;20067;-75
2022/04/16 07:35:06;;;;;;;1.30;1.20;;;;;;;10.03;47.01;99023.44;5093912;28;20043;-76
2022/04/16 07:37:32;;;;;;;2.03;1.40;;;;;;;10.06;46.89;99030.22;5110598;28;20074;-75
2022/04/16 07:39:58;;;;;;;2.72;1.55;;;;;;;10.06;46.71;99028.41;5077049;28;20134;-76
2022/04/16 07:42:30;;;;;;;1.77;1.50;;;;;;;10.34;46.50;99035.97;5094103;28;20058;-75
2022/04/16 07:44:55;;;;;;;1.77;1.67;;;;;;;10.13;46.85;99053.28;5111811;27;20480;-75
2022/04/16 07:47:21;;;;;;;3.53;1.70;;;;;;;10.10;46.64;99047.53;5076861;28;20040;-71
2022/04/16 07:49:47;;;;;;;6.80;1.80;;;;;;;9.94;46.53;99042.19;5093947;28;20039;-75
2022/04/16 07:52:12;;;;;;;1.77;1.67;;;;;;;10.14;46.69;99054.13;5111786;28;20126;-76
2022/04/16 07:54:38;;;;;;;2.37;1.87;;;;;;;10.07;46.51;99031.94;5110629;28;20500;-75
2022/04/16 07:57:05;;;;;;;2.17;1.60;;;;;;;10.27;46.14;99049.13;5093741;28;20525;-76
2022/04/16 07:59:31;;;;;;;4.00;1.95;;;;;;;10.04;46.38;99025.09;5110594;27;20051;-75
2022/04/16 08:01:57;;;;;;;2.85;1.67;;;;;;;10.11;46.24;99036.72;5093134;28;20040;-75
2022/04/16 08:04:23;;;;;;;2.03;1.60;;;;;;;10.20;45.81;99059.59;5109965;28;20044;-76
2022/04/16 08:06:50;;;;;;;1.70;1.60;;;;;;;10.32;45.95;99067.19;5094236;28;20050;-76
2022/04/16 08:09:17;;;;;;;2.55;1.83;;;;;;;10.37;45.64;99055.06;5111435;28;20047;-72
2022/04/16 08:11:46;;;;;;;1.98;1.70;;;;;;;10.12;45.80;99041.03;5076595;28;20180;-77
2022/04/16 08:14:12;;;;;;;2.15;1.95;;;;;;;10.28;45.89;99053.44;5076738;28;20036;-75
2022/04/16 08:16:39;;;;;;;1.98;1.80;;;;;;;10.11;45.60;99070.38;5091166;28;20044;-75
2022/04/16 08:19:05;;;;;;;2.30;2.10;;;;;;;10.07;45.84;99069.06;5091579;28;20043;-75
2022/04/16 08:21:32;;;;;;;2.70;2.30;;;;;;;10.18;45.68;99071.34;5091347;28;20531;-75
2022/04/16 08:24:12;;;;;;;3.08;1.88;;;;;;;10.10;45.69;99063.44;5074770;28;20035;-75
2022/04/16 08:26:39;;;;;;;2.35;1.75;;;;;;;9.92;45.56;99058.28;5074834;28;20032;-75
2022/04/16 08:29:04;;;;;;;2.78;2.05;;;;;;;9.90;46.00;99073.53;5062493;28;20471;-74
2022/04/16 08:31:30;;;;;;;2.08;1.73;;;;;;;10.06;46.18;99076.16;5074457;28;20042;-75
2022/04/16 08:33:56;;;;;;;3.65;1.90;;;;;;;9.99;46.08;99077.81;5075332;28;20533;-75
2022/04/16 08:36:22;;;;;;;2.97;1.88;;;;;;;9.85;46.34;99080.34;5083443;28;20048;-73
2022/04/16 08:38:47;;;;;;;4.00;1.85;;;;;;;9.90;46.28;99084.13;5042194;28;20051;-75
2022/04/16 08:41:13;;;;;;;2.08;1.60;;;;;;;10.05;46.14;99086.94;5076020;28;20493;-75
2022/04/16 08:43:39;;;;;;;5.55;2.08;;;;;;;10.07;45.94;99080.50;5059346;28;20040;-76
2022/04/16 08:46:05;;;;;;;3.13;2.20;;;;;;;10.04;46.05;99083.47;5093035;28;20089;-76
2022/04/16 08:48:34;;;;;;;3.33;1.90;;;;;;;10.01;46.26;99085.59;5059030;28;20534;-75
2022/04/16 08:51:00;;;;;;;5.05;1.90;;;;;;;9.83;46.71;99092.94;5076744;28;20069;-75
2022/04/16 08:53:28;;;;;;;2.50;1.95;;;;;;;10.01;46.72;99091.75;5077226;28;20043;-76
2022/04/16 08:55:53;;;;;;;2.38;2.10;;;;;;;9.90;46.86;99078.03;5075417;28;20523;-74
2022/04/16 08:58:19;;;;;;;5.78;2.50;;;;;;;10.06;46.50;99085.94;5058977;28;20130;-74
2022/04/16 09:00:45;;;;;;;2.40;2.13;;;;;;;10.06;46.56;99094.75;5075985;28;20052;-75
2022/04/16 09:03:13;;;;;;;2.58;2.10;;;;;;;10.03;46.60;99095.06;5059508;28;20043;-75
2022/04/16 09:05:46;;;;;;;2.85;1.70;;;;;;;10.35;46.47;99101.38;5110090;28;20043;-75
2022/04/16 09:08:27;;;;;;;2.75;1.75;;;;;;;10.17;46.40;99061.75;5075710;28;20040;-75
2022/04/16 09:11:07;;;;;;;1.58;1.42;;;;;;;10.25;46.17;99086.44;5110686;28;20067;-73
2022/04/16 09:13:33;;;;;;;3.17;2.20;;;;;;;9.90;45.78;99100.03;5109170;28;20047;-75
2022/04/16 09:16:03;;;;;;;2.03;1.80;;;;;;;10.07;46.26;99091.09;5075729;28;20048;-74
2022/04/16 09:18:29;;;;;;;2.45;2.10;;;;;;;9.89;46.67;99074.53;5092095;28;20044;-74
2022/04/16 09:20:55;;;;;;;2.40;2.10;;;;;;;9.86;46.31;99097.91;5092483;28;20362;-75
2022/04/16 09:23:22;;;;;;;3.50;1.88;;;;;;;9.81;46.45;99077.19;5075638;28;20044;-75
2022/04/16 09:25:53;;;;;;;5.00;2.97;;;;;;;10.11;46.72;99100.41;5092367;28;20046;-74
2022/04/16 09:28:21;;;;;;;3.15;2.50;;;;;;;9.91;46.76;99106.19;5092836;28;20055;-74
2022/04/16 09:30:50;;;;;;;3.70;2.40;;;;;;;10.01;46.90;99115.63;5075989;28;20096;-75
2022/04/16 09:33:16;;;;;;;2.92;2.00;;;;;;;9.79;46.41;99108.34;5108502;28;20525;-75
2022/04/16 09:35:42;;;;;;;2.93;2.20;;;;;;;9.92;46.17;99119.28;5075509;28;20530;-74
2022/04/16 09:38:12;;;;;;;4.75;2.10;;;;;;;10.02;45.95;99111.16;5075690;28;20048;-78
2022/04/16 09:40:38;;;;;;;2.25;2.05;;;;;;;9.99;45.80;99103.53;5110658;28;20504;-75
2022/04/16 09:43:05;;;;;;;2.88;2.20;;;;;;;10.14;45.68;99115.16;5075487;28;20046;-77
2022/04/16 09:45:37;;;;;;;2.47;2.00;;;;;;;10.02;45.45;99108.50;5058503;28;20063;-74
2022/04/16 09:48:04;;;;;;;3.73;2.23;;;;;;;9.83;45.58;99114.97;5058727;28;20478;-75
2022/04/16 09:50:31;;;;;;;2.45;1.60;;;;;;;9.69;45.46;99117.44;5092566;28;20050;-72
2022/04/16 09:53:02;;;;;;;2.22;1.83;;;;;;;9.84;45.73;99115.81;5075700;28;20039;-74
2022/04/16 09:55:29;;;;;;;2.33;1.80;;;;;;;9.83;45.34;99117.63;5075555;28;20136;-75
2022/04/16 09:58:01;;;;;;;3.53;2.00;;;;;;;9.85;45.42;99117.47;5109287;28;20043;-72
2022/04/16 10:00:27;;;;;;;4.50;1.90;;;;;;;9.78;45.62;99146.47;5104841;28;20496;-75
2022/04/16 10:02:54;;;;;;;2.28;2.00;;;;;;;9.79;45.42;99124.25;5109201;28;20040;-74
2022/04/16 10:05:21;;;;;;;2.33;2.10;;;;;;;10.04;45.45;99136.53;5092190;28;20081;-74
2022/04/16 10:07:48;;;;;;;1.95;1.67;;;;;;;9.80;44.77;99151.59;5093707;28;20179;-74
2022/04/16 10:10:25;;;;;;;2.58;1.70;;;;;;;9.69;44.89;99139.50;5112284;28;20078;-75
2022/04/16 10:13:01;;;;;;;1.90;1.50;;;;;;;10.07;44.47;99149.47;5081066;28;20043;-72
2022/04/16 10:16:05;;;;;;;2.40;1.70;;;;;;;10.23;43.98;99165.41;5113371;28;20099;-73
2022/04/16 10:18:33;;;;;;;2.85;2.03;;;;;;;10.11;44.29;99129.59;5091450;28;20059;-72
2022/04/16 10:21:00;;;;;;;4.10;2.00;;;;;;;10.18;44.13;99157.09;5094535;28;20046;-74
2022/04/16 10:23:40;;;;;;;3.40;2.10;;;;;;;10.29;43.60;99142.66;5090221;28;20062;-74
2022/04/16 10:26:14;;;;;;;3.80;1.85;;;;;;;10.26;43.59;99158.91;5078723;28;20047;-75
2022/04/16 10:28:43;;;;;;;2.70;1.73;;;;;;;10.08;43.25;99177.69;5112618;28;20636;-72
2022/04/16 10:31:22;;;;;;;1.83;1.70;;;;;;;10.11;43.53;99163.25;5094679;28;20048;-75
2022/04/16 10:33:59;;;;;;;1.58;1.48;;;;;;;10.05;43.19;99171.84;5129649;27;20059;-73
2022/04/16 10:36:28;;;;;;;4.20;1.50;;;;;;;10.05;43.19;99193.06;5110580;28;20069;-75
2022/04/16 10:38:54;;;;;;;3.50;2.20;;;;;;;10.00;43.33;99185.59;5111834;28;20706;-73
2022/04/16 10:41:21;;;;;;;4.00;2.00;;;;;;;9.92;43.72;99153.78;5078063;28;20184;-76
2022/04/16 10:43:57;;;;;;;5.20;1.90;;;;;;;10.28;43.71;99191.44;5077816;28;20044;-77
2022/04/16 10:46:24;;;;;;;2.00;1.80;;;;;;;10.10;43.57;99185.47;5094605;28;20047;-74
2022/04/16 10:48:50;;;;;;;2.60;1.98;;;;;;;10.29;42.88;99193.09;5078692;28;20074;-77
2022/04/16 10:51:22;;;;;;;2.17;1.80;;;;;;;10.41;43.02;99180.31;5078889;28;20497;-77
2022/04/16 10:53:48;;;;;;;2.47;1.90;;;;;;;10.08;42.84;99167.09;5061940;28;20496;-75
2022/04/16 10:56:18;;;;;;;2.47;2.00;;;;;;;10.24;42.76;99167.06;5095451;28;20067;-77
2022/04/16 10:58:59;;;;;;;3.28;2.53;;;;;;;10.42;42.66;99209.34;5113596;28;20046;-75
2022/04/16 11:01:26;;;;;;;2.97;2.00;;;;;;;10.12;42.81;99194.94;5113542;28;20429;-76
2022/04/16 11:03:55;;;;;;;7.13;2.25;;;;;;;10.01;43.18;99197.88;5113377;28;20039;-77
2022/04/16 11:06:35;;;;;;;4.07;2.00;;;;;;;10.25;42.68;99179.31;5062362;28;20040;-78
2022/04/16 11:09:02;;;;;;;4.35;2.00;;;;;;;9.98;42.84;99186.75;5078001;28;20513;-78
2022/04/16 11:11:28;;;;;;;2.50;1.77;;;;;;;9.84;42.94;99187.44;5078035;28;20138;-73
2022/04/16 11:13:59;;;;;;;3.05;1.98;;;;;;;10.16;42.97;99204.19;5074242;28;20039;-77
2022/04/16 11:16:25;;;;;;;3.65;1.88;;;;;;;9.98;42.91;99213.28;5112819;28;20043;-78
2022/04/16 11:18:50;;;;;;;4.87;2.10;;;;;;;10.00;42.66;99196.22;5095157;28;20069;-78
2022/04/16 11:21:18;;;;;;;2.75;1.73;;;;;;;10.08;42.61;99229.91;5079037;28;20043;-78
2022/04/16 11:23:47;;;;;;;5.55;2.50;;;;;;;10.03;42.62;99192.41;5112042;28;20477;-78
2022/04/16 11:34:32;;;;;;;3.53;2.80;;;;;;;9.85;42.85;99221.75;5086379;28;20051;-78
2022/04/16 11:36:59;;;;;;;2.70;2.33;;;;;;;9.86;43.10;99231.34;5078463;28;20448;-77
2022/04/16 11:39:27;;;;;;;2.10;1.90;;;;;;;9.93;42.96;99237.66;5112010;28;20564;-78
2022/04/16 11:41:55;;;;;;;2.83;2.30;;;;;;;10.00;43.01;99243.13;5095152;28;20047;-77
2022/04/16 11:44:43;;;;;;;3.53;2.50;;;;;;;10.06;42.71;99230.03;5094399;28;20040;-77
2022/04/16 11:47:15;;;;;;;2.13;1.90;;;;;;;10.15;42.86;99254.78;5094108;28;20044;-75
2022/04/16 11:49:42;;;;;;;;;;;;;;;10.32;42.41;99276.88;5060304;28;20039;-77
2022/04/16 11:52:11;;;;;;;2.97;2.30;;;;;;;9.99;42.75;99260.88;5060602;28;19923;-77
2022/04/16 11:54:38;;;;;;;2.60;2.00;;;;;;;9.91;43.12;99282.09;5112590;28;20035;-77
2022/04/16 11:57:04;;;;;;;8.43;2.10;;;;;;;9.70;43.28;99254.34;5094277;28;20051;-78